• Join FlightAware (Why Join?)
  • Login
  • US Flag 
05:55AM EST


 

Airport Tracker/Info


-or-


 

Live Flight TrackerFlight Track Log ✈ PDT4226 ✈ 17-Jul-2014 ✈ KPHL - KBGM

Flight Track Log - Related Links

Times and Time Zones

All times are in EDT time to prevent confusion due to time zone crossing. See the PDT4226 flight status page for this flight to view local times or setup timezone preferences in your user account.

Time Position Orientation Groundspeed Altitude Reporting Facility
EDT Latitude Longitude Course Direction KTS MPH feet Rate Location/Type
12:38PM 39.9000 -75.2333 311° West 119 137 600  Level Philadelphia TRACON
12:39PM 39.9167 -75.2833 294° West 146 168 1,900 1,380 Climbing Philadelphia TRACON
12:40PM 39.9333 -75.3333 294° West 165 190 3,400 1,320 Climbing Philadelphia TRACON
12:41PM 40.1184 -75.4684 323° Northwest  Level FlightAware Approximate
12:41PM 39.9500 -75.3833 294° West 169 194 4,500  Level Philadelphia TRACON
12:42PM 40.1817 -75.5226 311° West  Level FlightAware Approximate
12:42PM 39.9606 -75.4453 283° West 165 190 5,700  Level New York Center
12:43PM 40.2396 -75.5843 311° West  Level FlightAware Approximate
12:43PM 39.9844 -75.4739 317° Northwest 169 194 7,000  Level New York Center
12:44PM 40.0400 -75.4858 351° North 176 203 8,500 960 Climbing New York Center
12:45PM 40.0767 -75.5100 333° Northwest 194 223 9,000 240 Climbing New York Center
12:46PM 40.1422 -75.5389 341° North 224 258 9,000  Level New York Center
12:47PM 40.1958 -75.5536 348° North 224 258 9,000  Level New York Center
12:48PM 40.2567 -75.5931 334° Northwest 217 250 9,100  Climbing New York Center
12:49PM 40.2939 -75.6556 308° West 211 243 9,100 480 Level New York Center
12:50PM 40.3267 -75.7150 306° West 211 243 10,100 780 Climbing New York Center
12:51PM 40.3603 -75.7611 314° West 194 223 10,700 660 Climbing New York Center
12:52PM 40.4089 -75.7944 332° Northwest 194 223 11,400 780 Climbing New York Center
12:53PM 40.4594 -75.8308 331° Northwest 194 223 12,300 780 Climbing New York Center
12:54PM 40.5036 -75.8697 326° Northwest 194 223 13,000 660 Climbing New York Center
12:55PM 40.5522 -75.9033 332° Northwest 194 223 13,700 480 Climbing New York Center
12:56PM 40.6028 -75.9372 333° Northwest 204 235 14,000 120 Climbing New York Center
12:57PM 40.6572 -75.9797 329° Northwest 209 241 14,000  Level New York Center
12:58PM 40.7136 -76.0222 330° Northwest 224 258 14,000  Level New York Center
12:59PM 40.7683 -76.0592 333° Northwest 235 270 14,000  Level New York Center
01:00PM 40.8247 -76.1019 330° Northwest 235 270 14,000  Level New York Center
01:01PM 40.8914 -76.1483 332° Northwest 235 270 14,000  Level New York Center
01:02PM 40.9497 -76.1917 331° Northwest 240 276 14,000  Level New York Center
01:03PM 41.0083 -76.2292 334° Northwest 240 276 14,000  Level New York Center
01:04PM 41.0778 -76.2183 North 235 270 14,000  Level New York Center
01:05PM 41.1492 -76.2075 North 244 281 14,000  Level New York Center
01:06PM 41.2136 -76.2072 360° North 252 290 14,000  Level New York Center
01:07PM 41.2847 -76.2047 North 257 296 14,000  Level New York Center
01:08PM 41.3639 -76.2000 North 257 296 14,000 -120 Level New York Center
01:09PM 41.4350 -76.1975 North 257 296 13,800 -480 Descending New York Center
01:10PM 41.5103 -76.1869 North 257 296 13,100 -780 Descending New York Center
01:11PM 41.5814 -76.1817 North 272 313 12,300 -840 Descending New York Center
01:12PM 41.6650 -76.1772 North 277 319 11,400 -840 Descending New York Center
01:13PM 41.7400 -76.1722 North 277 319 10,600 -1,140 Descending New York Center
01:14PM 41.8078 -76.1525 12° North 267 307 9,200 -1,560 Descending New York Center
01:15PM 41.8414 -76.0942 52° Northeast 220 253 7,500 -1,800 Descending New York Center
01:16PM 41.8817 -76.0333 48° Northeast 213 245 5,700 -1,500 Descending New York Center
01:17PM 41.9242 -75.9669 49° Northeast 207 238 4,600 -900 Descending New York Center
01:18PM 41.9764 -75.9181 35° Northeast 214 246 4,000 -300 Descending New York Center
01:19PM 42.0356 -75.8975 14° North 214 246 4,000 -180 Level New York Center
01:20PM 42.0981 -75.8939 North 219 252 3,700 -600 Descending New York Center
01:21PM 42.1406 -75.9253 331° Northwest 177 204 2,900 -780 Descending New York Center
01:22PM 42.1725 -75.9528 327° Northwest 163 188 2,200 -540 Descending New York Center
01:23PM 42.2069 -75.9753 334° Northwest 153 176 1,900 -300 Descending New York Center